Nancy Mcallister — WDI3971 — position and weather

sailwx.info

Track history (hours):
 
Tides and Currents Weather Stations Pressure Air Temp Water Temp Dewpoint Dewpoint Depression Visibility Wind Speed Wind Dir Waves Ship Positions

Nancy Mcallister

Owner: McAllister Towing & Transportation Company Inc., Staten Island, NY. More information available from US FCC via Universal Licensing System and Coast Guard Vessel Documentation Center.

Last reported at 2017-Dec-11 16:58 UTC. Time now 2017-Dec-12 21:59 UTC.
Position N 36°56' W 076°20'.

Length 40 m; draft 5 m.

Type: Towing. MMSI: 367693850.

Date/timePositionNaut miles runAvg speedWind from/ knotsBaromVisibWave heightAir tempDewpointWater temp
2017-Dec-11 16:58N 36°56' W 076°20'0 0.8
2017-Dec-11 16:29N 36°55' W 076°20'0 0.1
2017-Dec-11 16:00N 36°55' W 076°20'0 0.6
2017-Dec-11 15:23N 36°56' W 076°20'0 0.0
2017-Dec-11 15:00N 36°56' W 076°20'0 0.0
2017-Dec-11 14:29N 36°56' W 076°20'0 0.0
2017-Dec-11 13:55N 36°56' W 076°20'0 0.0
2017-Dec-11 13:25N 36°56' W 076°20'0 0.0
2017-Dec-11 12:59N 36°56' W 076°20'0 0.0
2017-Dec-11 12:29N 36°56' W 076°20'0 0.0
2017-Dec-11 11:57N 36°56' W 076°20'0 0.0
2017-Dec-11 11:24N 36°56' W 076°20'0 0.0
2017-Dec-11 10:43N 36°56' W 076°20'0 0.1
2017-Dec-11 10:30N 36°56' W 076°20'0 0.0
2017-Dec-11 10:00N 36°56' W 076°20'0 0.0
2017-Dec-11 09:28N 36°56' W 076°20'0 0.0
2017-Dec-11 09:00N 36°56' W 076°20'0 0.0
2017-Dec-11 08:31N 36°56' W 076°20'0 0.0
2017-Dec-11 07:59N 36°56' W 076°20'0 0.0
2017-Dec-11 07:30N 36°56' W 076°20'0 0.0
2017-Dec-11 07:00N 36°56' W 076°20'0 0.0
2017-Dec-11 06:30N 36°56' W 076°20'0 0.0
2017-Dec-11 06:01N 36°56' W 076°20'0 0.0
2017-Dec-11 05:30N 36°56' W 076°20'0 0.0
2017-Dec-11 05:00N 36°56' W 076°20'0 0.0
2017-Dec-11 04:09N 36°56' W 076°20'0 0.0
2017-Dec-11 04:00N 36°56' W 076°20'0 0.0
2017-Dec-11 03:09N 36°56' W 076°20'0 0.0
2017-Dec-11 02:54N 36°56' W 076°20'0 0.2
2017-Dec-11 02:23N 36°56' W 076°20'1 1.8
2017-Dec-11 01:41N 36°57' W 076°20'1 5.9
2017-Dec-11 01:30N 36°56' W 076°20'0 0.0
2017-Dec-10 20:53N 36°56' W 076°20'1 3.1
2017-Dec-10 20:31N 36°55' W 076°20'1 1.0
2017-Dec-10 19:59N 36°55' W 076°20'2 3.2
2017-Dec-10 19:30N 36°57' W 076°20'5 8.9
2017-Dec-10 19:00N 36°52' W 076°19'1 1.1
2017-Dec-10 18:30N 36°51' W 076°19'0 0.0
2017-Dec-10 18:00N 36°51' W 076°19'0 0.0
2017-Dec-10 17:30N 36°51' W 076°19'0 0.0
2017-Dec-10 17:01N 36°51' W 076°19'0 0.0
2017-Dec-10 16:31N 36°51' W 076°19'0 0.0
2017-Dec-10 16:00N 36°51' W 076°19'0 0.0
2017-Dec-10 15:31N 36°51' W 076°19'0 0.0
2017-Dec-10 15:00N 36°51' W 076°19'0 0.0
2017-Dec-10 14:30N 36°51' W 076°19'0 0.0
2017-Dec-10 13:56N 36°51' W 076°19'0 0.0
2017-Dec-10 13:30N 36°51' W 076°19'0 0.5
2017-Dec-10 13:00N 36°51' W 076°20'0 0.5
2017-Dec-10 12:30N 36°51' W 076°19'0 0.0
2017-Dec-10 12:00N 36°51' W 076°19'1 2.6
2017-Dec-10 11:30N 36°53' W 076°20'3 6.5
2017-Dec-10 11:00N 36°56' W 076°20'1 2.4
2017-Dec-10 10:30N 36°55' W 076°20'1 1.3
2017-Dec-10 09:59N 36°55' W 076°20'2 4.1
2017-Dec-10 09:30N 36°57' W 076°20'1 0.7
2017-Dec-10 07:58N 36°56' W 076°20'0 0.0
2017-Dec-10 07:08N 36°56' W 076°20'0 0.0
2017-Dec-10 06:59N 36°56' W 076°20'0 0.0
2017-Dec-10 06:27N 36°56' W 076°20'0 0.0
2017-Dec-10 03:53N 36°56' W 076°20'0 0.0
2017-Dec-10 03:26N 36°56' W 076°20'0 0.0
2017-Dec-10 02:57N 36°56' W 076°20'0 0.0
2017-Dec-10 01:32N 36°56' W 076°20'0 0.0
2017-Dec-10 01:12N 36°56' W 076°20'3 1.4
2017-Dec-09 23:03N 36°53' W 076°20'1 9.1
2017-Dec-09 23:00N 36°52' W 076°20'1 1.8
2017-Dec-09 22:28N 36°52' W 076°19'3 5.7
2017-Dec-09 21:52N 36°55' W 076°20'1 0.3
2017-Dec-09 18:55N 36°56' W 076°20'0 0.0
2017-Dec-09 18:26N 36°56' W 076°20'0 0.0
2017-Dec-09 17:58N 36°56' W 076°20'0 0.0
2017-Dec-09 17:30N 36°56' W 076°20'0 0.0
2017-Dec-09 16:52N 36°56' W 076°20'0 0.0
2017-Dec-09 16:15N 36°56' W 076°20'0 0.0
2017-Dec-09 16:00N 36°56' W 076°20'0 0.0
2017-Dec-09 15:30N 36°56' W 076°20'0 0.0
2017-Dec-09 14:59N 36°56' W 076°20'0 0.0
2017-Dec-09 14:30N 36°56' W 076°20'0 0.0
2017-Dec-09 13:59N 36°56' W 076°20'0 0.0
2017-Dec-09 13:30N 36°56' W 076°20'0 0.0
2017-Dec-09 13:00N 36°56' W 076°20'0 0.0
2017-Dec-09 12:30N 36°56' W 076°20'0 0.0
2017-Dec-09 12:00N 36°56' W 076°20'2 4.0
2017-Dec-09 11:30N 36°54' W 076°20'2 4.6
2017-Dec-09 10:58N 36°51' W 076°19'0 0.6
2017-Dec-09 10:28N 36°52' W 076°19'2 4.6
2017-Dec-09 10:00N 36°54' W 076°20'2 4.8
2017-Dec-09 09:30N 36°51' W 076°19'0 0.0
2017-Dec-09 09:00N 36°51' W 076°19'0 0.5
2017-Dec-09 08:30N 36°52' W 076°19'0 0.9
2017-Dec-09 08:00N 36°51' W 076°20'0 0.3
2017-Dec-09 07:30N 36°51' W 076°20'0 0.0
2017-Dec-09 07:00N 36°51' W 076°20'0 0.0
2017-Dec-09 06:30N 36°51' W 076°20'0 0.0
2017-Dec-09 06:00N 36°51' W 076°20'0 0.0
2017-Dec-09 05:30N 36°51' W 076°20'0 0.0
2017-Dec-09 05:00N 36°51' W 076°20'0 0.0
2017-Dec-09 04:30N 36°51' W 076°20'0 0.0
2017-Dec-09 04:00N 36°51' W 076°20'0 0.0
2017-Dec-09 03:30N 36°51' W 076°20'0 0.0
2017-Dec-09 03:00N 36°51' W 076°20'0 0.0
2017-Dec-09 02:30N 36°51' W 076°20'0 0.0
2017-Dec-09 02:00N 36°51' W 076°20'0 0.0
2017-Dec-09 01:30N 36°51' W 076°20'0 0.7
2017-Dec-09 01:00N 36°52' W 076°19'2 3.1
2017-Dec-09 00:30N 36°53' W 076°21'0 0.3
2017-Dec-09 00:00N 36°52' W 076°21'0 0.2
2017-Dec-08 23:30N 36°52' W 076°21'1 1.7
2017-Dec-08 23:00N 36°52' W 076°20'5 9.0
2017-Dec-08 22:30N 36°48' W 076°17'0 0.9
2017-Dec-08 22:00N 36°48' W 076°18'0 0.0
2017-Dec-08 21:30N 36°48' W 076°18'0 0.0
2017-Dec-08 21:00N 36°48' W 076°18'0 0.0
2017-Dec-08 20:30N 36°48' W 076°18'2 5.0
2017-Dec-08 20:00N 36°50' W 076°17'0 0.0
2017-Dec-08 19:30N 36°50' W 076°17'0 0.0
2017-Dec-08 19:00N 36°50' W 076°17'0 0.0
2017-Dec-08 18:30N 36°50' W 076°17'0 0.0
2017-Dec-08 18:01N 36°50' W 076°17'0 0.0
2017-Dec-08 17:30N 36°50' W 076°17'0 0.0
2017-Dec-08 17:00N 36°50' W 076°17'0 0.0
2017-Dec-08 16:30N 36°50' W 076°17'0 0.0
2017-Dec-08 16:00N 36°50' W 076°17'0 0.0
2017-Dec-08 15:30N 36°50' W 076°17'0 0.0
2017-Dec-08 15:01N 36°50' W 076°17'0 0.0
2017-Dec-08 14:30N 36°50' W 076°17'0 0.0
2017-Dec-08 14:00N 36°50' W 076°17'0 0.0
2017-Dec-08 13:30N 36°50' W 076°17'0 0.0
2017-Dec-08 13:01N 36°50' W 076°17'0 0.0
2017-Dec-08 12:31N 36°50' W 076°17'0 0.0
2017-Dec-08 12:00N 36°50' W 076°17'0 0.9
2017-Dec-08 11:30N 36°51' W 076°18'3 6.3
2017-Dec-08 11:00N 36°52' W 076°21'0 0.2
2017-Dec-08 10:30N 36°53' W 076°21'2 3.2
2017-Dec-08 10:01N 36°54' W 076°20'0 0.4
2017-Dec-08 09:31N 36°54' W 076°20'2 3.6
2017-Dec-08 09:00N 36°52' W 076°21'3 1.4
2017-Dec-08 06:32N 36°56' W 076°20'0 0.0
2017-Dec-08 04:08N 36°56' W 076°20'0 0.0
2017-Dec-08 02:46N 36°56' W 076°20'0 0.0
2017-Dec-08 02:27N 36°56' W 076°20'0 0.0
2017-Dec-08 02:00N 36°56' W 076°20'0 0.0
2017-Dec-08 01:19N 36°56' W 076°20'0 0.0
2017-Dec-08 00:59N 36°56' W 076°20'0 0.0
2017-Dec-08 00:30N 36°56' W 076°20'0 0.0
2017-Dec-08 00:00N 36°56' W 076°20'0 0.0
2017-Dec-07 23:22N 36°56' W 076°20'0 0.0
2017-Dec-07 22:20N 36°56' W 076°20'0 0.0
2017-Dec-07 21:31N 36°56' W 076°20'0 0.0
2017-Dec-07 21:12N 36°56' W 076°20'0 0.0
2017-Dec-07 20:56N 36°56' W 076°20'0 0.0
2017-Dec-07 19:50N 36°56' W 076°20'0 0.0
2017-Dec-07 19:25N 36°56' W 076°20'0 0.0
2017-Dec-07 18:53N 36°56' W 076°20'0 0.0
2017-Dec-07 18:30N 36°56' W 076°20'0 0.0
2017-Dec-07 18:01N 36°56' W 076°20'1 1.7
2017-Dec-07 17:18N 36°55' W 076°20'0 0.3
2017-Dec-07 17:00N 36°55' W 076°20'0 0.7
2017-Dec-07 16:30N 36°55' W 076°20'1 0.6
2017-Dec-07 14:04N 36°56' W 076°20'0 7.0
2017-Dec-07 14:00N 36°56' W 076°20'0 0.1
2017-Dec-07 13:26N 36°56' W 076°20'0 0.0
2017-Dec-07 13:00N 36°56' W 076°20'2 3.6
2017-Dec-07 12:30N 36°54' W 076°20'1 3.0
2017-Dec-07 12:00N 36°53' W 076°21'2 3.0
2017-Dec-07 11:12N 36°55' W 076°20'0 0.9
2017-Dec-07 10:59N 36°55' W 076°20'2 5.2
2017-Dec-07 10:30N 36°53' W 076°20'1 1.1
2017-Dec-07 10:00N 36°53' W 076°21'1 2.4
2017-Dec-07 09:28N 36°54' W 076°20'1 0.3
2017-Dec-07 05:09N 36°55' W 076°20'1 8.6
2017-Dec-07 05:00N 36°54' W 076°20'1 2.2
2017-Dec-07 04:30N 36°53' W 076°21'3 5.0
2017-Dec-07 03:54N 36°56' W 076°20'0 0.1
2017-Dec-07 01:15N 36°56' W 076°20'0 0.0
2017-Dec-07 00:34N 36°56' W 076°20'0 0.1
2017-Dec-07 00:29N 36°56' W 076°20'1 2.5
2017-Dec-07 00:00N 36°55' W 076°20'1 1.2
2017-Dec-06 23:30N 36°55' W 076°20'2 3.2
2017-Dec-06 23:00N 36°57' W 076°20'2 4.9
2017-Dec-06 22:30N 36°54' W 076°20'1 2.9
2017-Dec-06 22:01N 36°53' W 076°20'3 5.7
2017-Dec-06 21:30N 36°56' W 076°20'  
2017-Dec-04 10:30N 36°56' W 076°20'4 8.5
2017-Dec-04 10:00N 36°52' W 076°20'1 1.1
2017-Dec-04 09:30N 36°52' W 076°20'0 0.6
2017-Dec-04 09:00N 36°52' W 076°19'0 0.7
2017-Dec-04 08:30N 36°51' W 076°19'0 0.0
2017-Dec-04 08:00N 36°51' W 076°19'0 0.0
2017-Dec-04 07:30N 36°51' W 076°19'2 3.1
2017-Dec-04 07:00N 36°53' W 076°21'0 0.3
2017-Dec-04 06:24N 36°53' W 076°21'0 0.2
2017-Dec-04 06:00N 36°53' W 076°21'0 0.2
2017-Dec-04 05:22N 36°53' W 076°21'0 0.0
2017-Dec-04 04:56N 36°53' W 076°21'0 0.0
2017-Dec-04 04:30N 36°53' W 076°21'0 0.0
2017-Dec-04 03:44N 36°53' W 076°21'0 2.1
2017-Dec-04 03:30N 36°53' W 076°20'2 4.0
2017-Dec-04 03:00N 36°55' W 076°20'0 0.9
2017-Dec-04 02:30N 36°55' W 076°20'1 2.4
2017-Dec-04 01:53N 36°56' W 076°20'1 1.4
2017-Dec-04 01:29N 36°56' W 076°20'0 0.0
2017-Dec-04 00:51N 36°56' W 076°20'0 0.0
2017-Dec-04 00:30N 36°56' W 076°20'0 0.0
2017-Dec-03 23:53N 36°56' W 076°20'0 0.3
2017-Dec-03 23:24N 36°56' W 076°20'0 0.0
2017-Dec-03 23:00N 36°56' W 076°20'0 0.2
2017-Dec-03 22:14N 36°56' W 076°20'0 0.1
2017-Dec-03 22:00N 36°56' W 076°20'4 7.3
2017-Dec-03 21:30N 36°52' W 076°20'1 1.6
2017-Dec-03 20:59N 36°51' W 076°20'2 3.1
2017-Dec-03 20:28N 36°53' W 076°20'2 3.2
2017-Dec-03 20:00N 36°52' W 076°19'1 0.8
2017-Dec-03 19:20N 36°51' W 076°19'0 0.0
2017-Dec-03 18:56N 36°51' W 076°19'0 0.0
2017-Dec-03 18:23N 36°51' W 076°19'0 0.0
2017-Dec-03 17:58N 36°51' W 076°19'0 0.0
2017-Dec-03 17:30N 36°51' W 076°19'0 0.0
2017-Dec-03 17:00N 36°51' W 076°19'0 0.0
2017-Dec-03 16:20N 36°51' W 076°19'0 0.0
2017-Dec-03 15:53N 36°51' W 076°19'0 0.0
2017-Dec-03 15:30N 36°51' W 076°19'0 0.0
2017-Dec-03 14:59N 36°51' W 076°19'3 6.4
2017-Dec-03 14:30N 36°49' W 076°17'1 1.7
2017-Dec-03 14:00N 36°48' W 076°18'0 0.3
2017-Dec-03 13:30N 36°48' W 076°17'2 3.0
2017-Dec-03 13:00N 36°50' W 076°18'2 4.6
2017-Dec-03 12:30N 36°52' W 076°19'0 0.4
2017-Dec-03 12:00N 36°51' W 076°19'2 3.3
2017-Dec-03 11:30N 36°52' W 076°21'0 0.4
2017-Dec-03 11:00N 36°53' W 076°21'2 3.7
2017-Dec-03 10:28N 36°55' W 076°20'4 8.2
2017-Dec-03 10:00N 36°51' W 076°18'1 2.1
2017-Dec-03 09:30N 36°50' W 076°17'0 0.0
2017-Dec-03 09:00N 36°50' W 076°17'0 0.0
2017-Dec-03 08:30N 36°50' W 076°17'0 0.0
2017-Dec-03 08:00N 36°50' W 076°17'0 0.0
2017-Dec-03 07:30N 36°50' W 076°17'0 0.0
2017-Dec-03 07:00N 36°50' W 076°17'0 0.0
2017-Dec-03 06:30N 36°50' W 076°17'0 0.0
2017-Dec-03 06:00N 36°50' W 076°17'0 0.0
2017-Dec-03 05:30N 36°50' W 076°17'0 0.0
2017-Dec-03 05:00N 36°50' W 076°17'3 6.0
2017-Dec-03 04:30N 36°53' W 076°20'1 1.5
2017-Dec-03 04:00N 36°52' W 076°21'0 0.2
2017-Dec-03 03:30N 36°53' W 076°21'2 4.3
2017-Dec-03 02:58N 36°55' W 076°20'1 1.7
2017-Dec-03 02:30N 36°54' W 076°20'2 3.3
2017-Dec-03 01:48N 36°57' W 076°20'1 3.0
2017-Dec-03 01:21N 36°55' W 076°20'3 9.2
2017-Dec-03 01:00N 36°52' W 076°20'1 1.4
2017-Dec-03 00:30N 36°51' W 076°19'0 0.0
2017-Dec-03 00:00N 36°51' W 076°19'0 0.0
2017-Dec-02 23:30N 36°51' W 076°19'0 0.0
2017-Dec-02 23:00N 36°51' W 076°19'0 0.0
2017-Dec-02 22:30N 36°51' W 076°19'0 0.0
2017-Dec-02 22:00N 36°51' W 076°19'1 1.8
2017-Dec-02 21:13N 36°53' W 076°20'0 0.9
2017-Dec-02 21:00N 36°53' W 076°20'0 0.4
2017-Dec-02 20:30N 36°53' W 076°20'0 0.1
2017-Dec-02 20:00N 36°53' W 076°20'0 0.9
2017-Dec-02 19:30N 36°53' W 076°20'0 0.0
2017-Dec-02 19:00N 36°53' W 076°20'0 0.0
2017-Dec-02 18:30N 36°53' W 076°20'0 0.0
2017-Dec-02 18:01N 36°53' W 076°20'0 0.0
2017-Dec-02 17:30N 36°53' W 076°20'0 0.0
2017-Dec-02 17:00N 36°53' W 076°20'0 0.0
2017-Dec-02 16:30N 36°53' W 076°20'2 3.4
2017-Dec-02 16:00N 36°51' W 076°19'3 5.4
2017-Dec-02 15:30N 36°49' W 076°17'2 4.5
2017-Dec-02 15:00N 36°47' W 076°18'0 0.1
2017-Dec-02 14:30N 36°47' W 076°18'0 0.0
2017-Dec-02 14:00N 36°47' W 076°18'0 0.0
2017-Dec-02 13:30N 36°47' W 076°18'0 0.0
2017-Dec-02 13:00N 36°47' W 076°18'0 0.0
2017-Dec-02 12:30N 36°47' W 076°18'0 0.0
2017-Dec-02 12:00N 36°47' W 076°18'0 0.0
2017-Dec-02 11:30N 36°47' W 076°18'0 0.0
2017-Dec-02 11:00N 36°47' W 076°18'0 0.0
2017-Dec-02 10:30N 36°47' W 076°18'0 0.0
2017-Dec-02 10:00N 36°47' W 076°18'0 0.0
2017-Dec-02 09:30N 36°47' W 076°18'0 0.0
2017-Dec-02 09:00N 36°47' W 076°18'1 2.4
2017-Dec-02 08:30N 36°48' W 076°18'0 0.5
2017-Dec-02 08:00N 36°48' W 076°18'0 0.0
2017-Dec-02 07:30N 36°48' W 076°18'0 0.0
2017-Dec-02 07:00N 36°48' W 076°18'0 0.0
2017-Dec-02 06:30N 36°48' W 076°18'0 0.0
2017-Dec-02 06:00N 36°48' W 076°18'0 0.0
2017-Dec-02 05:30N 36°48' W 076°18'0 0.0
2017-Dec-02 05:00N 36°48' W 076°18'2 4.2
2017-Dec-02 04:30N 36°50' W 076°18'3 6.9
2017-Dec-02 04:00N 36°52' W 076°21'0 0.3
2017-Dec-02 03:27N 36°53' W 076°21'1 2.1
2017-Dec-02 02:59N 36°53' W 076°20'3 6.1
2017-Dec-02 02:28N 36°56' W 076°20'1 1.2
2017-Dec-02 01:59N 36°56' W 076°20'0 0.8
2017-Dec-02 01:30N 36°56' W 076°20'0 0.5
2017-Dec-02 00:38N 36°56' W 076°20'0 0.0
2017-Dec-02 00:22N 36°56' W 076°20'0 0.0
2017-Dec-02 00:00N 36°56' W 076°20'0 0.0
2017-Dec-01 23:30N 36°56' W 076°20'0 0.0
2017-Dec-01 22:59N 36°56' W 076°20'0 0.0
2017-Dec-01 19:11N 36°56' W 076°20'0 0.0
2017-Dec-01 18:54N 36°56' W 076°20'0 0.0
2017-Dec-01 18:30N 36°56' W 076°20'0 0.0
2017-Dec-01 18:00N 36°56' W 076°20'0 0.0
2017-Dec-01 17:30N 36°56' W 076°20'3 5.5
2017-Dec-01 17:00N 36°53' W 076°20'  
Track history (hours):
 
Tides and Currents Weather Stations Pressure Air Temp Water Temp Dewpoint Dewpoint Depression Visibility Wind Speed Wind Dir Waves Ship Positions

Nancy Mcallister

Owner: McAllister Towing & Transportation Company Inc., Staten Island, NY. More information available from US FCC via Universal Licensing System and Coast Guard Vessel Documentation Center.

Last reported at 2017-Dec-11 16:58 UTC. Time now 2017-Dec-12 21:59 UTC.
Position N 36°56' W 076°20'.

Length 40 m; draft 5 m.

Type: Towing. MMSI: 367693850.

Date/timePositionNaut miles runAvg speedWind from/ knotsBaromVisibWave heightAir tempDewpointWater temp
2017-Dec-11 16:58N 36°56' W 076°20'0 0.8
2017-Dec-11 16:29N 36°55' W 076°20'0 0.1
2017-Dec-11 16:00N 36°55' W 076°20'0 0.6
2017-Dec-11 15:23N 36°56' W 076°20'0 0.0
2017-Dec-11 15:00N 36°56' W 076°20'0 0.0
2017-Dec-11 14:29N 36°56' W 076°20'0 0.0
2017-Dec-11 13:55N 36°56' W 076°20'0 0.0
2017-Dec-11 13:25N 36°56' W 076°20'0 0.0
2017-Dec-11 12:59N 36°56' W 076°20'0 0.0
2017-Dec-11 12:29N 36°56' W 076°20'0 0.0
2017-Dec-11 11:57N 36°56' W 076°20'0 0.0
2017-Dec-11 11:24N 36°56' W 076°20'0 0.0
2017-Dec-11 10:43N 36°56' W 076°20'0 0.1
2017-Dec-11 10:30N 36°56' W 076°20'0 0.0
2017-Dec-11 10:00N 36°56' W 076°20'0 0.0
2017-Dec-11 09:28N 36°56' W 076°20'0 0.0
2017-Dec-11 09:00N 36°56' W 076°20'0 0.0
2017-Dec-11 08:31N 36°56' W 076°20'0 0.0
2017-Dec-11 07:59N 36°56' W 076°20'0 0.0
2017-Dec-11 07:30N 36°56' W 076°20'0 0.0
2017-Dec-11 07:00N 36°56' W 076°20'0 0.0
2017-Dec-11 06:30N 36°56' W 076°20'0 0.0
2017-Dec-11 06:01N 36°56' W 076°20'0 0.0
2017-Dec-11 05:30N 36°56' W 076°20'0 0.0
2017-Dec-11 05:00N 36°56' W 076°20'0 0.0
2017-Dec-11 04:09N 36°56' W 076°20'0 0.0
2017-Dec-11 04:00N 36°56' W 076°20'0 0.0
2017-Dec-11 03:09N 36°56' W 076°20'0 0.0
2017-Dec-11 02:54N 36°56' W 076°20'0 0.2
2017-Dec-11 02:23N 36°56' W 076°20'1 1.8
2017-Dec-11 01:41N 36°57' W 076°20'1 5.9
2017-Dec-11 01:30N 36°56' W 076°20'0 0.0
2017-Dec-10 20:53N 36°56' W 076°20'1 3.1
2017-Dec-10 20:31N 36°55' W 076°20'1 1.0
2017-Dec-10 19:59N 36°55' W 076°20'2 3.2
2017-Dec-10 19:30N 36°57' W 076°20'5 8.9
2017-Dec-10 19:00N 36°52' W 076°19'1 1.1
2017-Dec-10 18:30N 36°51' W 076°19'0 0.0
2017-Dec-10 18:00N 36°51' W 076°19'0 0.0
2017-Dec-10 17:30N 36°51' W 076°19'0 0.0
2017-Dec-10 17:01N 36°51' W 076°19'0 0.0
2017-Dec-10 16:31N 36°51' W 076°19'0 0.0
2017-Dec-10 16:00N 36°51' W 076°19'0 0.0
2017-Dec-10 15:31N 36°51' W 076°19'0 0.0
2017-Dec-10 15:00N 36°51' W 076°19'0 0.0
2017-Dec-10 14:30N 36°51' W 076°19'0 0.0
2017-Dec-10 13:56N 36°51' W 076°19'0 0.0
2017-Dec-10 13:30N 36°51' W 076°19'0 0.5
2017-Dec-10 13:00N 36°51' W 076°20'0 0.5
2017-Dec-10 12:30N 36°51' W 076°19'0 0.0
2017-Dec-10 12:00N 36°51' W 076°19'1 2.6
2017-Dec-10 11:30N 36°53' W 076°20'3 6.5
2017-Dec-10 11:00N 36°56' W 076°20'1 2.4
2017-Dec-10 10:30N 36°55' W 076°20'1 1.3
2017-Dec-10 09:59N 36°55' W 076°20'2 4.1
2017-Dec-10 09:30N 36°57' W 076°20'1 0.7
2017-Dec-10 07:58N 36°56' W 076°20'0 0.0
2017-Dec-10 07:08N 36°56' W 076°20'0 0.0
2017-Dec-10 06:59N 36°56' W 076°20'0 0.0
2017-Dec-10 06:27N 36°56' W 076°20'0 0.0
2017-Dec-10 03:53N 36°56' W 076°20'0 0.0
2017-Dec-10 03:26N 36°56' W 076°20'0 0.0
2017-Dec-10 02:57N 36°56' W 076°20'0 0.0
2017-Dec-10 01:32N 36°56' W 076°20'0 0.0
2017-Dec-10 01:12N 36°56' W 076°20'3 1.4
2017-Dec-09 23:03N 36°53' W 076°20'1 9.1
2017-Dec-09 23:00N 36°52' W 076°20'1 1.8
2017-Dec-09 22:28N 36°52' W 076°19'3 5.7
2017-Dec-09 21:52N 36°55' W 076°20'1 0.3
2017-Dec-09 18:55N 36°56' W 076°20'0 0.0
2017-Dec-09 18:26N 36°56' W 076°20'0 0.0
2017-Dec-09 17:58N 36°56' W 076°20'0 0.0
2017-Dec-09 17:30N 36°56' W 076°20'0 0.0
2017-Dec-09 16:52N 36°56' W 076°20'0 0.0
2017-Dec-09 16:15N 36°56' W 076°20'0 0.0
2017-Dec-09 16:00N 36°56' W 076°20'0 0.0
2017-Dec-09 15:30N 36°56' W 076°20'0 0.0
2017-Dec-09 14:59N 36°56' W 076°20'0 0.0
2017-Dec-09 14:30N 36°56' W 076°20'0 0.0
2017-Dec-09 13:59N 36°56' W 076°20'0 0.0
2017-Dec-09 13:30N 36°56' W 076°20'0 0.0
2017-Dec-09 13:00N 36°56' W 076°20'0 0.0
2017-Dec-09 12:30N 36°56' W 076°20'0 0.0
2017-Dec-09 12:00N 36°56' W 076°20'2 4.0
2017-Dec-09 11:30N 36°54' W 076°20'2 4.6
2017-Dec-09 10:58N 36°51' W 076°19'0 0.6
2017-Dec-09 10:28N 36°52' W 076°19'2 4.6
2017-Dec-09 10:00N 36°54' W 076°20'2 4.8
2017-Dec-09 09:30N 36°51' W 076°19'0 0.0
2017-Dec-09 09:00N 36°51' W 076°19'0 0.5
2017-Dec-09 08:30N 36°52' W 076°19'0 0.9
2017-Dec-09 08:00N 36°51' W 076°20'0 0.3
2017-Dec-09 07:30N 36°51' W 076°20'0 0.0
2017-Dec-09 07:00N 36°51' W 076°20'0 0.0
2017-Dec-09 06:30N 36°51' W 076°20'0 0.0
2017-Dec-09 06:00N 36°51' W 076°20'0 0.0
2017-Dec-09 05:30N 36°51' W 076°20'0 0.0
2017-Dec-09 05:00N 36°51' W 076°20'0 0.0
2017-Dec-09 04:30N 36°51' W 076°20'0 0.0
2017-Dec-09 04:00N 36°51' W 076°20'0 0.0
2017-Dec-09 03:30N 36°51' W 076°20'0 0.0
2017-Dec-09 03:00N 36°51' W 076°20'0 0.0
2017-Dec-09 02:30N 36°51' W 076°20'0 0.0
2017-Dec-09 02:00N 36°51' W 076°20'0 0.0
2017-Dec-09 01:30N 36°51' W 076°20'0 0.7
2017-Dec-09 01:00N 36°52' W 076°19'2 3.1
2017-Dec-09 00:30N 36°53' W 076°21'0 0.3
2017-Dec-09 00:00N 36°52' W 076°21'0 0.2
2017-Dec-08 23:30N 36°52' W 076°21'1 1.7
2017-Dec-08 23:00N 36°52' W 076°20'5 9.0
2017-Dec-08 22:30N 36°48' W 076°17'0 0.9
2017-Dec-08 22:00N 36°48' W 076°18'0 0.0
2017-Dec-08 21:30N 36°48' W 076°18'0 0.0
2017-Dec-08 21:00N 36°48' W 076°18'0 0.0
2017-Dec-08 20:30N 36°48' W 076°18'2 5.0
2017-Dec-08 20:00N 36°50' W 076°17'0 0.0
2017-Dec-08 19:30N 36°50' W 076°17'0 0.0
2017-Dec-08 19:00N 36°50' W 076°17'0 0.0
2017-Dec-08 18:30N 36°50' W 076°17'0 0.0
2017-Dec-08 18:01N 36°50' W 076°17'0 0.0
2017-Dec-08 17:30N 36°50' W 076°17'0 0.0
2017-Dec-08 17:00N 36°50' W 076°17'0 0.0
2017-Dec-08 16:30N 36°50' W 076°17'0 0.0
2017-Dec-08 16:00N 36°50' W 076°17'0 0.0
2017-Dec-08 15:30N 36°50' W 076°17'0 0.0
2017-Dec-08 15:01N 36°50' W 076°17'0 0.0
2017-Dec-08 14:30N 36°50' W 076°17'0 0.0
2017-Dec-08 14:00N 36°50' W 076°17'0 0.0
2017-Dec-08 13:30N 36°50' W 076°17'0 0.0
2017-Dec-08 13:01N 36°50' W 076°17'0 0.0
2017-Dec-08 12:31N 36°50' W 076°17'0 0.0
2017-Dec-08 12:00N 36°50' W 076°17'0 0.9
2017-Dec-08 11:30N 36°51' W 076°18'3 6.3
2017-Dec-08 11:00N 36°52' W 076°21'0 0.2
2017-Dec-08 10:30N 36°53' W 076°21'2 3.2
2017-Dec-08 10:01N 36°54' W 076°20'0 0.4
2017-Dec-08 09:31N 36°54' W 076°20'2 3.6
2017-Dec-08 09:00N 36°52' W 076°21'3 1.4
2017-Dec-08 06:32N 36°56' W 076°20'0 0.0
2017-Dec-08 04:08N 36°56' W 076°20'0 0.0
2017-Dec-08 02:46N 36°56' W 076°20'0 0.0
2017-Dec-08 02:27N 36°56' W 076°20'0 0.0
2017-Dec-08 02:00N 36°56' W 076°20'0 0.0
2017-Dec-08 01:19N 36°56' W 076°20'0 0.0
2017-Dec-08 00:59N 36°56' W 076°20'0 0.0
2017-Dec-08 00:30N 36°56' W 076°20'0 0.0
2017-Dec-08 00:00N 36°56' W 076°20'0 0.0
2017-Dec-07 23:22N 36°56' W 076°20'0 0.0
2017-Dec-07 22:20N 36°56' W 076°20'0 0.0
2017-Dec-07 21:31N 36°56' W 076°20'0 0.0
2017-Dec-07 21:12N 36°56' W 076°20'0 0.0
2017-Dec-07 20:56N 36°56' W 076°20'0 0.0
2017-Dec-07 19:50N 36°56' W 076°20'0 0.0
2017-Dec-07 19:25N 36°56' W 076°20'0 0.0
2017-Dec-07 18:53N 36°56' W 076°20'0 0.0
2017-Dec-07 18:30N 36°56' W 076°20'0 0.0
2017-Dec-07 18:01N 36°56' W 076°20'1 1.7
2017-Dec-07 17:18N 36°55' W 076°20'0 0.3
2017-Dec-07 17:00N 36°55' W 076°20'0 0.7
2017-Dec-07 16:30N 36°55' W 076°20'1 0.6
2017-Dec-07 14:04N 36°56' W 076°20'0 7.0
2017-Dec-07 14:00N 36°56' W 076°20'0 0.1
2017-Dec-07 13:26N 36°56' W 076°20'0 0.0
2017-Dec-07 13:00N 36°56' W 076°20'2 3.6
2017-Dec-07 12:30N 36°54' W 076°20'1 3.0
2017-Dec-07 12:00N 36°53' W 076°21'2 3.0
2017-Dec-07 11:12N 36°55' W 076°20'0 0.9
2017-Dec-07 10:59N 36°55' W 076°20'2 5.2
2017-Dec-07 10:30N 36°53' W 076°20'1 1.1
2017-Dec-07 10:00N 36°53' W 076°21'1 2.4
2017-Dec-07 09:28N 36°54' W 076°20'1 0.3
2017-Dec-07 05:09N 36°55' W 076°20'1 8.6
2017-Dec-07 05:00N 36°54' W 076°20'1 2.2
2017-Dec-07 04:30N 36°53' W 076°21'3 5.0
2017-Dec-07 03:54N 36°56' W 076°20'0 0.1
2017-Dec-07 01:15N 36°56' W 076°20'0 0.0
2017-Dec-07 00:34N 36°56' W 076°20'0 0.1
2017-Dec-07 00:29N 36°56' W 076°20'1 2.5
2017-Dec-07 00:00N 36°55' W 076°20'1 1.2
2017-Dec-06 23:30N 36°55' W 076°20'2 3.2
2017-Dec-06 23:00N 36°57' W 076°20'2 4.9
2017-Dec-06 22:30N 36°54' W 076°20'1 2.9
2017-Dec-06 22:01N 36°53' W 076°20'3 5.7
2017-Dec-06 21:30N 36°56' W 076°20'  
2017-Dec-04 10:30N 36°56' W 076°20'4 8.5
2017-Dec-04 10:00N 36°52' W 076°20'1 1.1
2017-Dec-04 09:30N 36°52' W 076°20'0 0.6
2017-Dec-04 09:00N 36°52' W 076°19'0 0.7
2017-Dec-04 08:30N 36°51' W 076°19'0 0.0
2017-Dec-04 08:00N 36°51' W 076°19'0 0.0
2017-Dec-04 07:30N 36°51' W 076°19'2 3.1
2017-Dec-04 07:00N 36°53' W 076°21'0 0.3
2017-Dec-04 06:24N 36°53' W 076°21'0 0.2
2017-Dec-04 06:00N 36°53' W 076°21'0 0.2
2017-Dec-04 05:22N 36°53' W 076°21'0 0.0
2017-Dec-04 04:56N 36°53' W 076°21'0 0.0
2017-Dec-04 04:30N 36°53' W 076°21'0 0.0
2017-Dec-04 03:44N 36°53' W 076°21'0 2.1
2017-Dec-04 03:30N 36°53' W 076°20'2 4.0
2017-Dec-04 03:00N 36°55' W 076°20'0 0.9
2017-Dec-04 02:30N 36°55' W 076°20'1 2.4
2017-Dec-04 01:53N 36°56' W 076°20'1 1.4
2017-Dec-04 01:29N 36°56' W 076°20'0 0.0
2017-Dec-04 00:51N 36°56' W 076°20'0 0.0
2017-Dec-04 00:30N 36°56' W 076°20'0 0.0
2017-Dec-03 23:53N 36°56' W 076°20'0 0.3
2017-Dec-03 23:24N 36°56' W 076°20'0 0.0
2017-Dec-03 23:00N 36°56' W 076°20'0 0.2
2017-Dec-03 22:14N 36°56' W 076°20'0 0.1
2017-Dec-03 22:00N 36°56' W 076°20'4 7.3
2017-Dec-03 21:30N 36°52' W 076°20'1 1.6
2017-Dec-03 20:59N 36°51' W 076°20'2 3.1
2017-Dec-03 20:28N 36°53' W 076°20'2 3.2
2017-Dec-03 20:00N 36°52' W 076°19'1 0.8
2017-Dec-03 19:20N 36°51' W 076°19'0 0.0
2017-Dec-03 18:56N 36°51' W 076°19'0 0.0
2017-Dec-03 18:23N 36°51' W 076°19'0 0.0
2017-Dec-03 17:58N 36°51' W 076°19'0 0.0
2017-Dec-03 17:30N 36°51' W 076°19'0 0.0
2017-Dec-03 17:00N 36°51' W 076°19'0 0.0
2017-Dec-03 16:20N 36°51' W 076°19'0 0.0
2017-Dec-03 15:53N 36°51' W 076°19'0 0.0
2017-Dec-03 15:30N 36°51' W 076°19'0 0.0
2017-Dec-03 14:59N 36°51' W 076°19'3 6.4
2017-Dec-03 14:30N 36°49' W 076°17'1 1.7
2017-Dec-03 14:00N 36°48' W 076°18'0 0.3
2017-Dec-03 13:30N 36°48' W 076°17'2 3.0
2017-Dec-03 13:00N 36°50' W 076°18'2 4.6
2017-Dec-03 12:30N 36°52' W 076°19'0 0.4
2017-Dec-03 12:00N 36°51' W 076°19'2 3.3
2017-Dec-03 11:30N 36°52' W 076°21'0 0.4
2017-Dec-03 11:00N 36°53' W 076°21'2 3.7
2017-Dec-03 10:28N 36°55' W 076°20'4 8.2
2017-Dec-03 10:00N 36°51' W 076°18'1 2.1
2017-Dec-03 09:30N 36°50' W 076°17'0 0.0
2017-Dec-03 09:00N 36°50' W 076°17'0 0.0
2017-Dec-03 08:30N 36°50' W 076°17'0 0.0
2017-Dec-03 08:00N 36°50' W 076°17'0 0.0
2017-Dec-03 07:30N 36°50' W 076°17'0 0.0
2017-Dec-03 07:00N 36°50' W 076°17'0 0.0
2017-Dec-03 06:30N 36°50' W 076°17'0 0.0
2017-Dec-03 06:00N 36°50' W 076°17'0 0.0
2017-Dec-03 05:30N 36°50' W 076°17'0 0.0
2017-Dec-03 05:00N 36°50' W 076°17'3 6.0
2017-Dec-03 04:30N 36°53' W 076°20'1 1.5
2017-Dec-03 04:00N 36°52' W 076°21'0 0.2
2017-Dec-03 03:30N 36°53' W 076°21'2 4.3
2017-Dec-03 02:58N 36°55' W 076°20'1 1.7
2017-Dec-03 02:30N 36°54' W 076°20'2 3.3
2017-Dec-03 01:48N 36°57' W 076°20'1 3.0
2017-Dec-03 01:21N 36°55' W 076°20'3 9.2
2017-Dec-03 01:00N 36°52' W 076°20'1 1.4
2017-Dec-03 00:30N 36°51' W 076°19'0 0.0
2017-Dec-03 00:00N 36°51' W 076°19'0 0.0
2017-Dec-02 23:30N 36°51' W 076°19'0 0.0
2017-Dec-02 23:00N 36°51' W 076°19'0 0.0
2017-Dec-02 22:30N 36°51' W 076°19'0 0.0
2017-Dec-02 22:00N 36°51' W 076°19'1 1.8
2017-Dec-02 21:13N 36°53' W 076°20'0 0.9
2017-Dec-02 21:00N 36°53' W 076°20'0 0.4
2017-Dec-02 20:30N 36°53' W 076°20'0 0.1
2017-Dec-02 20:00N 36°53' W 076°20'0 0.9
2017-Dec-02 19:30N 36°53' W 076°20'0 0.0
2017-Dec-02 19:00N 36°53' W 076°20'0 0.0
2017-Dec-02 18:30N 36°53' W 076°20'0 0.0
2017-Dec-02 18:01N 36°53' W 076°20'0 0.0
2017-Dec-02 17:30N 36°53' W 076°20'0 0.0
2017-Dec-02 17:00N 36°53' W 076°20'0 0.0
2017-Dec-02 16:30N 36°53' W 076°20'2 3.4
2017-Dec-02 16:00N 36°51' W 076°19'3 5.4
2017-Dec-02 15:30N 36°49' W 076°17'2 4.5
2017-Dec-02 15:00N 36°47' W 076°18'0 0.1
2017-Dec-02 14:30N 36°47' W 076°18'0 0.0
2017-Dec-02 14:00N 36°47' W 076°18'0 0.0
2017-Dec-02 13:30N 36°47' W 076°18'0 0.0
2017-Dec-02 13:00N 36°47' W 076°18'0 0.0
2017-Dec-02 12:30N 36°47' W 076°18'0 0.0
2017-Dec-02 12:00N 36°47' W 076°18'0 0.0
2017-Dec-02 11:30N 36°47' W 076°18'0 0.0
2017-Dec-02 11:00N 36°47' W 076°18'0 0.0
2017-Dec-02 10:30N 36°47' W 076°18'0 0.0
2017-Dec-02 10:00N 36°47' W 076°18'0 0.0
2017-Dec-02 09:30N 36°47' W 076°18'0 0.0
2017-Dec-02 09:00N 36°47' W 076°18'1 2.4
2017-Dec-02 08:30N 36°48' W 076°18'0 0.5
2017-Dec-02 08:00N 36°48' W 076°18'0 0.0
2017-Dec-02 07:30N 36°48' W 076°18'0 0.0
2017-Dec-02 07:00N 36°48' W 076°18'0 0.0
2017-Dec-02 06:30N 36°48' W 076°18'0 0.0
2017-Dec-02 06:00N 36°48' W 076°18'0 0.0
2017-Dec-02 05:30N 36°48' W 076°18'0 0.0
2017-Dec-02 05:00N 36°48' W 076°18'2 4.2
2017-Dec-02 04:30N 36°50' W 076°18'3 6.9
2017-Dec-02 04:00N 36°52' W 076°21'0 0.3
2017-Dec-02 03:27N 36°53' W 076°21'1 2.1
2017-Dec-02 02:59N 36°53' W 076°20'3 6.1
2017-Dec-02 02:28N 36°56' W 076°20'1 1.2
2017-Dec-02 01:59N 36°56' W 076°20'0 0.8
2017-Dec-02 01:30N 36°56' W 076°20'0 0.5
2017-Dec-02 00:38N 36°56' W 076°20'0 0.0
2017-Dec-02 00:22N 36°56' W 076°20'0 0.0
2017-Dec-02 00:00N 36°56' W 076°20'0 0.0
2017-Dec-01 23:30N 36°56' W 076°20'0 0.0
2017-Dec-01 22:59N 36°56' W 076°20'0 0.0
2017-Dec-01 19:11N 36°56' W 076°20'0 0.0
2017-Dec-01 18:54N 36°56' W 076°20'0 0.0
2017-Dec-01 18:30N 36°56' W 076°20'0 0.0
2017-Dec-01 18:00N 36°56' W 076°20'0 0.0
2017-Dec-01 17:30N 36°56' W 076°20'3 5.5
2017-Dec-01 17:00N 36°53' W 076°20'  

Dump ship's entire track history